Latest Coastal Weather Observations for Port Macquarie Airport

IDN60701

Issued at 5:55 pm EST Saturday 20 September 2014 (issued every 10 minutes, with the page automatically refreshed every 10 minutes)

About coastal observations | Map of coastal stations | Coastal observations for NSW | Marine services | Other Formats
Station Details ID: 060139 Name: PORT MACQUARIE AIRPORT AWS Lat: -31.43 Lon: 152.87 Height: 4.2 m
Data from the previous 72 hours. | See also: Recent months at Port Macquarie Airport
Date/Time
EST
Temp

°C
Wind Pressure Rain
since 9am
mm
Weather Cloud Vis
km
Sea
Height
m
Swell
Dir
 
Speed
knots
Gust
knots
hPa Trend Height
m
Period
s
Dir
20/05:30pm 16.8 S 9 12 1023.6 - 0.0 - Partly cloudy 10 - - - -
20/05:00pm 17.3 S 11 16 1023.1 - 0.0 - Partly cloudy 10 - - - -
20/04:30pm 18.1 S 12 17 1022.8 - 0.0 - Partly cloudy 10 - - - -
20/04:00pm 18.4 S 13 18 1022.4 - 0.0 - - 10 - - - -
20/03:30pm 18.6 SSE 13 20 1022.0 - 0.0 - - 10 - - - -
20/03:00pm 19.3 SSE 13 18 1021.8 - 0.0 - - 10 - - - -
20/02:30pm 19.4 SSE 13 17 1021.7 - 0.0 - - 10 - - - -
20/02:00pm 19.4 SSE 14 19 1021.7 - 0.0 - - 10 - - - -
20/01:30pm 20.3 SSE 13 16 1021.9 - 0.0 - - 10 - - - -
20/01:00pm 20.2 SE 11 16 1021.9 - 0.0 - - 10 - - - -
20/12:30pm 21.1 SE 10 14 1022.0 - 0.0 - - 10 - - - -
20/12:00pm 20.6 SE 9 15 1022.1 - 0.0 - - 10 - - - -
20/11:30am 20.4 S 7 12 1022.4 - 0.0 - - 10 - - - -
20/11:00am 19.9 WSW 5 8 1022.9 - 0.0 - - 10 - - - -
20/10:30am 19.1 WSW 5 8 1023.1 - 0.0 - - 10 - - - -
20/10:00am 18.9 N 3 6 1023.2 - 0.0 - - 10 - - - -
20/09:30am 18.3 NW 7 9 1023.4 - 0.0 - - 10 - - - -
20/09:00am 16.6 WNW 6 8 1023.5 - 0.0 - - 10 - - - -
20/08:30am 15.6 WNW 5 6 1023.6 - 0.0 - - 10 - - - -
20/08:00am 13.8 W 7 10 1023.4 - 0.0 - - 10 - - - -
20/07:30am 11.7 W 8 11 1023.2 - 0.0 - - 10 - - - -
20/07:00am 10.5 WNW 7 11 1022.9 - 0.0 - - 10 - - - -
20/06:30am 9.0 WNW 6 9 1022.6 - 0.0 - - 10 - - - -
20/06:00am 7.4 WNW 2 6 1022.2 - 0.0 - - 10 - - - -
20/05:30am 7.5 W 3 5 1021.8 - 0.0 - - 10 - - - -
20/05:00am 6.8 CALM 0 3 1021.5 - 0.0 - - 10 - - - -
20/04:30am 7.5 CALM 0 3 1020.9 - 0.0 - - 10 - - - -
20/04:00am 6.1 WNW 2 4 1020.7 - 0.0 - - 10 - - - -
20/03:30am 6.0 WSW 1 5 1020.4 - 0.0 - - 10 - - - -
20/03:00am 5.1 CALM 0 0 1020.4 - 0.0 - - 10 - - - -
20/02:30am 5.7 CALM 0 0 1020.5 - 0.0 - - 10 - - - -
20/02:00am 5.7 CALM 0 0 1020.6 - 0.0 - - 10 - - - -
20/01:30am 7.1 CALM 0 0 1020.8 - 0.0 - - 10 - - - -
20/01:00am 7.4 CALM 0 0 1021.1 - 0.0 - - 10 - - - -
20/12:30am 8.6 W 1 3 1021.2 - 0.0 - - 10 - - - -
20/12:00am 9.3 WNW 2 4 1021.3 - 0.0 - Mostly cloudy 10 - - - -
 
Date/Time
EST
Temp

°C
Wind Pressure Rain
since 9am
mm
Weather Cloud Vis
km
Sea
Height
m
Swell
Dir
 
Speed
knots
Gust
knots
hPa Trend Height
m
Period
s
Dir
19/11:30pm 9.6 NNW 3 5 1021.5 - 0.0 - - 10 - - - -
19/11:00pm 8.8 SW 4 5 1021.3 - 0.0 - - 10 - - - -
19/10:30pm 8.4 SSW 3 4 1021.7 - 0.0 - - 10 - - - -
19/10:00pm 8.2 SSW 3 3 1021.9 - 0.0 - - 10 - - - -
19/09:30pm 8.0 SSW 1 3 1021.9 - 0.0 - - 10 - - - -
19/09:00pm 9.1 CALM 0 0 1021.9 - 0.0 - Mostly clear 10 - - - -
19/08:30pm 10.2 CALM 0 0 1021.7 - 0.0 - - 10 - - - -
19/08:00pm 11.2 CALM 0 0 1021.4 - 0.0 - - 10 - - - -
19/07:30pm 11.8 N 1 3 1021.2 - 0.0 - - 10 - - - -
19/07:00pm 12.5 CALM 0 0 1020.8 - 0.0 - - 10 - - - -
19/06:30pm 13.2 S 2 4 1020.3 - 0.0 - - 10 - - - -
19/06:00pm 14.7 S 3 5 1020.0 - 0.0 - Cloudy 10 - - - -
19/05:30pm 15.7 S 6 8 1019.5 - 0.0 - - 10 - - - -
19/05:00pm 16.2 SSE 8 11 1019.1 - 0.0 - - 10 - - - -
19/04:30pm 17.0 SSE 9 13 1019.1 - 0.0 - - 10 - - - -
19/04:00pm 17.4 SE 9 12 1018.9 - 0.0 - - 10 - - - -
19/03:30pm 18.0 SE 9 12 1018.7 - 0.0 - - 10 - - - -
19/03:00pm 17.7 SE 10 14 1018.5 - 0.0 - Mostly clear 10 - - - -
19/02:30pm 18.2 SSE 9 13 1018.3 - 0.0 - - 10 - - - -
19/02:00pm 18.1 SSE 9 14 1018.6 - 0.0 - - 10 - - - -
19/01:30pm 18.0 SE 11 13 1018.8 - 0.0 - - 10 - - - -
19/01:00pm 18.3 SSE 9 13 1019.1 - 0.0 - - 10 - - - -
19/12:30pm 17.5 SSE 9 12 1019.9 - 0.0 - Partly cloudy 10 - - - -
19/12:00pm 18.1 SE 7 10 1020.2 - 0.0 - Cloudy 10 - - - -
19/11:30am 18.5 N 3 8 1020.7 - 0.0 - Partly cloudy 10 - - - -
19/11:00am 18.4 NNW 1 5 1021.2 - 0.0 - - 10 - - - -
19/10:30am 17.7 SSW 4 5 1021.6 - 0.0 - - 10 - - - -
19/10:00am 17.7 W 4 8 1021.9 - 0.0 - - 10 - - - -
19/09:30am 16.4 W 5 7 1022.2 - 0.0 - - 10 - - - -
19/09:00am 15.5 W 5 8 1022.2 - 0.0 - - 10 - - - -
19/08:30am 14.0 W 6 8 1022.2 - 0.0 - - 10 - - - -
19/08:00am 13.7 W 6 8 1022.2 - 0.0 - - 10 - - - -
19/07:30am 12.3 WNW 6 9 1022.1 - 0.0 - - 10 - - - -
19/07:00am 10.8 W 7 9 1021.8 - 0.0 - - 10 - - - -
19/06:30am 9.7 W 7 10 1021.6 - 0.0 - - 10 - - - -
19/06:00am 8.8 W 4 6 1021.3 - 0.0 - - 10 - - - -
19/05:30am 8.6 W 4 8 1021.0 - 0.0 - - 10 - - - -
19/05:00am 8.9 W 5 8 1020.7 - 0.0 - - 10 - - - -
19/04:30am 8.8 W 4 7 1020.5 - 0.0 - - 10 - - - -
19/04:00am 9.0 W 4 6 1020.5 - 0.0 - - 10 - - - -
19/03:30am 9.5 W 7 11 1020.3 - 0.0 - - 10 - - - -
19/03:00am 9.4 W 5 6 1020.3 - 0.0 - - 10 - - - -
19/02:30am 9.4 W 5 9 1020.3 - 0.0 - - 10 - - - -
19/02:00am 8.4 WNW 4 7 1020.5 - 0.0 - - 10 - - - -
19/01:30am 8.5 W 4 7 1020.7 - 0.0 - - 10 - - - -
19/01:00am 6.9 WSW 2 4 1020.7 - 0.0 - - 10 - - - -
19/12:30am 6.1 CALM 0 0 1020.8 - 0.0 - - 10 - - - -
19/12:00am 6.8 WNW 1 3 1021.1 - 0.0 - - 10 - - - -
 
Date/Time
EST
Temp

°C
Wind Pressure Rain
since 9am
mm
Weather Cloud Vis
km
Sea
Height
m
Swell
Dir
 
Speed
knots
Gust
knots
hPa Trend Height
m
Period
s
Dir
18/11:30pm 7.3 CALM 0 0 1021.1 - 0.0 - - 10 - - - -
18/11:00pm 6.9 CALM 0 0 1021.2 - 0.0 - - 10 - - - -
18/10:30pm 7.6 CALM 0 0 1021.1 - 0.0 - - 10 - - - -
18/10:00pm 7.8 CALM 0 0 1021.2 - 0.0 - - 10 - - - -
18/09:30pm 8.3 CALM 0 0 1021.0 - 0.0 - - 10 - - - -
18/09:00pm 8.7 CALM 0 0 1020.8 - 0.0 - - 10 - - - -
18/08:30pm 9.6 CALM 0 0 1020.5 - 0.0 - - 10 - - - -
18/08:00pm 9.6 CALM 0 3 1020.3 - 0.0 - - 10 - - - -
18/07:30pm 10.5 CALM 0 0 1019.9 - 0.0 - - 10 - - - -
18/07:00pm 11.0 SW 5 5 1019.3 - 0.0 - - 10 - - - -
18/06:30pm 12.5 SW 1 4 1019.0 - 0.0 - - 10 - - - -
18/06:00pm 14.7 S 4 6 1018.5 - 0.0 - - 10 - - - -
18/05:30pm 16.1 SSE 6 12 1018.2 - 0.0 - - 10 - - - -
18/05:00pm 17.0 S 10 13 1017.6 - 0.0 - - 10 - - - -
18/04:30pm 17.9 SSE 9 13 1017.1 - 0.0 - - 10 - - - -
18/04:00pm 18.2 SE 11 16 1016.8 - 0.0 - - 10 - - - -
18/03:30pm 19.0 SSE 11 16 1016.4 - 0.0 - - 10 - - - -
18/03:00pm 19.5 SE 12 17 1016.1 - 0.0 - - 10 - - - -
18/02:30pm 19.4 SE 12 16 1015.7 - 0.0 - - 10 - - - -
18/02:00pm 20.0 SE 10 18 1015.6 - 0.0 - - 10 - - - -
18/01:30pm 20.3 SE 10 14 1015.7 - 0.0 - - 10 - - - -
18/01:00pm 20.7 ESE 9 15 1015.9 - 0.0 - - 10 - - - -
18/12:30pm 21.2 E 11 15 1016.1 - 0.0 - - 10 - - - -
18/12:00pm 21.8 SW 11 17 1016.6 - 0.0 - - 10 - - - -
18/11:30am 20.0 SW 7 12 1017.0 - 0.0 - - 10 - - - -
18/11:00am 19.9 WSW 8 12 1017.6 - 0.0 - - 10 - - - -
18/10:30am 19.1 WSW 7 11 1018.0 - 0.0 - - 10 - - - -
18/10:00am 19.0 WSW 10 15 1018.2 - 0.0 - - 10 - - - -
18/09:30am 18.0 WNW 8 13 1018.3 - 0.0 - - 10 - - - -
18/09:00am 17.6 W 9 13 1018.5 - 0.0 - - 10 - - - -
18/08:30am 16.9 W 9 13 1018.6 - 0.0 - - 10 - - - -
18/08:00am 15.6 W 8 12 1018.3 - 0.0 - - 10 - - - -
18/07:30am 14.1 W 7 9 1018.3 - 0.0 - - 10 - - - -
18/07:00am 12.4 W 7 9 1018.2 - 0.0 - - 10 - - - -
18/06:30am 9.1 CALM 0 1 1017.7 - 0.0 - - 10 - - - -
18/06:00am 7.3 SW 3 4 1017.5 - 0.0 - - 10 - - - -
18/05:30am 9.2 W 6 9 1017.0 - 0.0 - - 10 - - - -
18/05:00am 10.2 W 6 8 1016.6 - 0.0 - - 10 - - - -
18/04:30am 10.3 W 7 8 1016.2 - 0.0 - - 10 - - - -
18/04:00am 11.1 W 8 11 1015.9 - 0.0 - - 10 - - - -
18/03:30am 11.0 W 8 9 1015.6 - 0.0 - - 10 - - - -
18/03:00am 10.2 W 5 7 1015.6 - 0.0 - - 10 - - - -
18/02:30am 10.0 W 5 7 1015.5 - 0.0 - - 10 - - - -
18/02:00am 11.1 W 7 9 1015.5 - 0.0 - - 10 - - - -
18/01:30am 8.7 CALM 0 0 1015.5 - 0.0 - - 10 - - - -
18/01:00am 9.8 W 2 6 1015.5 - 0.0 - - 10 - - - -
18/12:30am 10.2 W 1 3 1015.6 - 0.0 - Partly cloudy 10 - - - -
18/12:00am 10.3 W 1 4 1015.6 - 0.0 - Mostly clear 10 - - - -
 
Date/Time
EST
Temp

°C
Wind Pressure Rain
since 9am
mm
Weather Cloud Vis
km
Sea
Height
m
Swell
Dir
 
Speed
knots
Gust
knots
hPa Trend Height
m
Period
s
Dir
17/11:30pm 11.9 CALM 0 0 1015.6 - 0.0 - - 10 - - - -
17/11:00pm 12.9 CALM 0 2 1015.5 - 0.0 - Partly cloudy 10 - - - -
17/10:30pm 12.5 W 4 6 1015.4 - 0.0 - Partly cloudy 10 - - - -
17/10:00pm 12.5 WNW 4 6 1015.2 - 0.0 - Partly cloudy 10 - - - -
17/09:30pm 13.6 S 1 7 1015.2 - 0.0 - Partly cloudy 10 - - - -
17/09:00pm 13.8 SW 1 3 1015.0 - 0.0 - Mostly cloudy 10 - - - -
17/08:30pm 13.0 WSW 2 4 1014.6 - 0.0 - Partly cloudy 10 - - - -
17/08:00pm 13.9 NNW 3 4 1014.3 - 0.0 - Cloudy 10 - - - -
17/07:30pm 14.4 WSW 1 3 1014.0 - 0.0 - Partly cloudy 10 - - - -
17/07:00pm 14.9 CALM 0 0 1013.7 - 0.0 - Partly cloudy 10 - - - -
17/06:30pm 16.0 CALM 0 0 1013.3 - 0.0 - Partly cloudy 10 - - - -
17/06:00pm 16.7 SSE 1 3 1012.9 - 0.0 - Cloudy 10 - - - -

Other Formats:

Comma delimited format used in spreadsheet applications
http://www.bom.gov.au/fwo/IDN60701/IDN60701.94786.axf

JavaScript Object Notation format (JSON) in row-major order
http://www.bom.gov.au/fwo/IDN60701/IDN60701.94786.json